sensor_id;sensor_type;location;lat;lon;timestamp;temperature;humidity
1359;DHT22;673;48.098;14.422;2023-01-29T00:02:08;-0.60;99.90
1359;DHT22;673;48.098;14.422;2023-01-29T00:04:35;-0.60;99.90
1359;DHT22;673;48.098;14.422;2023-01-29T00:07:02;-0.70;99.90
1359;DHT22;673;48.098;14.422;2023-01-29T00:09:29;-0.70;99.90
1359;DHT22;673;48.098;14.422;2023-01-29T00:11:58;-0.70;99.90
1359;DHT22;673;48.098;14.422;2023-01-29T00:14:28;-0.60;99.90
1359;DHT22;673;48.098;14.422;2023-01-29T00:16:55;-0.50;99.90
1359;DHT22;673;48.098;14.422;2023-01-29T00:19:23;-0.50;99.90
1359;DHT22;673;48.098;14.422;2023-01-29T00:21:50;-0.40;99.90
1359;DHT22;673;48.098;14.422;2023-01-29T00:24:17;-0.40;99.90
1359;DHT22;673;48.098;14.422;2023-01-29T00:26:44;-0.40;99.90
1359;DHT22;673;48.098;14.422;2023-01-29T00:29:11;-0.30;99.90
1359;DHT22;673;48.098;14.422;2023-01-29T00:31:38;-0.30;99.90
1359;DHT22;673;48.098;14.422;2023-01-29T00:34:08;-0.40;99.90
1359;DHT22;673;48.098;14.422;2023-01-29T00:36:36;-0.40;99.90
1359;DHT22;673;48.098;14.422;2023-01-29T00:39:03;-0.40;99.90
1359;DHT22;673;48.098;14.422;2023-01-29T00:41:35;-0.40;99.90
1359;DHT22;673;48.098;14.422;2023-01-29T00:44:20;-0.50;99.90
1359;DHT22;673;48.098;14.422;2023-01-29T00:47:05;-0.50;99.90
1359;DHT22;673;48.098;14.422;2023-01-29T00:49:52;-0.60;99.90
1359;DHT22;673;48.098;14.422;2023-01-29T00:52:23;-0.70;99.90
1359;DHT22;673;48.098;14.422;2023-01-29T00:54:50;-0.80;99.90
1359;DHT22;673;48.098;14.422;2023-01-29T00:57:23;-0.70;99.90
1359;DHT22;673;48.098;14.422;2023-01-29T00:59:51;-0.70;99.90
1359;DHT22;673;48.098;14.422;2023-01-29T01:02:27;-0.70;99.90
1359;DHT22;673;48.098;14.422;2023-01-29T01:05:14;-0.70;99.90
1359;DHT22;673;48.098;14.422;2023-01-29T01:07:47;-0.80;99.90
1359;DHT22;673;48.098;14.422;2023-01-29T01:10:25;-0.80;99.90
1359;DHT22;673;48.098;14.422;2023-01-29T01:12:54;-0.80;99.90
1359;DHT22;673;48.098;14.422;2023-01-29T01:15:25;-0.60;99.90
1359;DHT22;673;48.098;14.422;2023-01-29T01:17:56;-0.60;99.90
1359;DHT22;673;48.098;14.422;2023-01-29T01:20:24;-0.60;99.90
1359;DHT22;673;48.098;14.422;2023-01-29T01:22:54;-0.70;99.90
1359;DHT22;673;48.098;14.422;2023-01-29T01:25:25;-0.70;99.90
1359;DHT22;673;48.098;14.422;2023-01-29T01:27:56;-0.80;99.90
1359;DHT22;673;48.098;14.422;2023-01-29T01:30:23;-0.80;99.90
1359;DHT22;673;48.098;14.422;2023-01-29T01:32:51;-0.80;99.90
1359;DHT22;673;48.098;14.422;2023-01-29T01:35:18;-0.80;99.90
1359;DHT22;673;48.098;14.422;2023-01-29T01:37:45;-0.80;99.90
1359;DHT22;673;48.098;14.422;2023-01-29T01:40:19;-0.80;99.90
1359;DHT22;673;48.098;14.422;2023-01-29T01:42:47;-0.70;99.90
1359;DHT22;673;48.098;14.422;2023-01-29T01:45:25;-0.70;99.90
1359;DHT22;673;48.098;14.422;2023-01-29T01:47:55;-0.80;99.90
1359;DHT22;673;48.098;14.422;2023-01-29T01:50:31;-0.90;99.90
1359;DHT22;673;48.098;14.422;2023-01-29T01:53:05;-0.90;99.90
1359;DHT22;673;48.098;14.422;2023-01-29T01:55:37;-0.90;99.90
1359;DHT22;673;48.098;14.422;2023-01-29T01:58:08;-1.00;99.90
1359;DHT22;673;48.098;14.422;2023-01-29T02:00:38;-1.00;99.90
1359;DHT22;673;48.098;14.422;2023-01-29T02:03:06;-0.90;99.90
1359;DHT22;673;48.098;14.422;2023-01-29T02:05:52;-0.80;99.90
1359;DHT22;673;48.098;14.422;2023-01-29T02:08:43;-0.90;99.90
1359;DHT22;673;48.098;14.422;2023-01-29T02:11:31;-1.00;99.90
1359;DHT22;673;48.098;14.422;2023-01-29T02:13:58;-0.90;99.90
1359;DHT22;673;48.098;14.422;2023-01-29T02:16:28;-0.90;99.90
1359;DHT22;673;48.098;14.422;2023-01-29T02:18:56;-0.90;99.90
1359;DHT22;673;48.098;14.422;2023-01-29T02:21:39;-0.90;99.90
1359;DHT22;673;48.098;14.422;2023-01-29T02:24:52;-0.90;99.90
1359;DHT22;673;48.098;14.422;2023-01-29T02:27:32;-1.00;99.90
1359;DHT22;673;48.098;14.422;2023-01-29T02:30:10;-0.90;99.90
1359;DHT22;673;48.098;14.422;2023-01-29T02:32:57;-0.90;99.90
1359;DHT22;673;48.098;14.422;2023-01-29T02:35:28;-0.90;99.90
1359;DHT22;673;48.098;14.422;2023-01-29T02:38:06;-0.90;99.90
1359;DHT22;673;48.098;14.422;2023-01-29T02:40:40;-0.90;99.90
1359;DHT22;673;48.098;14.422;2023-01-29T02:43:19;-0.90;99.90
1359;DHT22;673;48.098;14.422;2023-01-29T02:45:56;-0.90;99.90
1359;DHT22;673;48.098;14.422;2023-01-29T02:48:31;-0.80;99.90
1359;DHT22;673;48.098;14.422;2023-01-29T02:51:04;-0.80;99.90
1359;DHT22;673;48.098;14.422;2023-01-29T02:53:38;-0.70;99.90
1359;DHT22;673;48.098;14.422;2023-01-29T02:56:10;-0.70;99.90
1359;DHT22;673;48.098;14.422;2023-01-29T02:58:42;-0.90;99.90
1359;DHT22;673;48.098;14.422;2023-01-29T03:01:16;-0.80;99.90
1359;DHT22;673;48.098;14.422;2023-01-29T03:03:50;-0.90;99.90
1359;DHT22;673;48.098;14.422;2023-01-29T03:06:23;-0.80;99.90
1359;DHT22;673;48.098;14.422;2023-01-29T03:08:54;-0.80;99.90
1359;DHT22;673;48.098;14.422;2023-01-29T03:11:35;-0.90;99.90
1359;DHT22;673;48.098;14.422;2023-01-29T03:14:07;-0.90;99.90
1359;DHT22;673;48.098;14.422;2023-01-29T03:16:41;-1.00;99.90
1359;DHT22;673;48.098;14.422;2023-01-29T03:19:12;-0.90;99.90
1359;DHT22;673;48.098;14.422;2023-01-29T03:21:46;-0.90;99.90
1359;DHT22;673;48.098;14.422;2023-01-29T03:24:29;-0.90;99.90
1359;DHT22;673;48.098;14.422;2023-01-29T03:27:17;-1.10;99.90
1359;DHT22;673;48.098;14.422;2023-01-29T03:30:04;-1.00;99.90
1359;DHT22;673;48.098;14.422;2023-01-29T03:32:51;-1.00;99.90
1359;DHT22;673;48.098;14.422;2023-01-29T03:35:24;-1.00;99.90
1359;DHT22;673;48.098;14.422;2023-01-29T03:38:00;-0.90;99.90
1359;DHT22;673;48.098;14.422;2023-01-29T03:40:32;-0.80;99.90
1359;DHT22;673;48.098;14.422;2023-01-29T03:43:08;-0.90;99.90
1359;DHT22;673;48.098;14.422;2023-01-29T03:45:43;-0.90;99.90
1359;DHT22;673;48.098;14.422;2023-01-29T03:48:25;-0.80;99.90
1359;DHT22;673;48.098;14.422;2023-01-29T03:51:02;-0.70;99.90
1359;DHT22;673;48.098;14.422;2023-01-29T03:53:41;-0.60;99.90
1359;DHT22;673;48.098;14.422;2023-01-29T03:56:18;-0.50;99.90
1359;DHT22;673;48.098;14.422;2023-01-29T03:58:53;-0.70;99.90
1359;DHT22;673;48.098;14.422;2023-01-29T04:01:26;-0.60;99.90
1359;DHT22;673;48.098;14.422;2023-01-29T04:04:04;-0.50;99.90
1359;DHT22;673;48.098;14.422;2023-01-29T04:06:33;-0.40;99.90
1359;DHT22;673;48.098;14.422;2023-01-29T04:09:03;-0.40;99.90
1359;DHT22;673;48.098;14.422;2023-01-29T04:11:42;-0.40;99.90
1359;DHT22;673;48.098;14.422;2023-01-29T04:14:11;-0.40;99.90
1359;DHT22;673;48.098;14.422;2023-01-29T04:16:40;-0.60;99.90
1359;DHT22;673;48.098;14.422;2023-01-29T04:19:11;-0.60;99.90
1359;DHT22;673;48.098;14.422;2023-01-29T04:21:42;-0.70;99.90
1359;DHT22;673;48.098;14.422;2023-01-29T04:24:11;-0.50;99.90
1359;DHT22;673;48.098;14.422;2023-01-29T04:26:54;-0.40;99.90
1359;DHT22;673;48.098;14.422;2023-01-29T04:29:32;-0.40;99.90
1359;DHT22;673;48.098;14.422;2023-01-29T04:32:06;-0.40;99.90
1359;DHT22;673;48.098;14.422;2023-01-29T04:34:49;-0.50;99.90
1359;DHT22;673;48.098;14.422;2023-01-29T04:37:25;-0.50;99.90
1359;DHT22;673;48.098;14.422;2023-01-29T04:39:57;-0.50;99.90
1359;DHT22;673;48.098;14.422;2023-01-29T04:42:31;-0.60;99.90
1359;DHT22;673;48.098;14.422;2023-01-29T04:45:03;-0.60;99.90
1359;DHT22;673;48.098;14.422;2023-01-29T04:47:40;-0.60;99.90
1359;DHT22;673;48.098;14.422;2023-01-29T04:50:20;-0.60;99.90
1359;DHT22;673;48.098;14.422;2023-01-29T04:52:52;-0.70;99.90
1359;DHT22;673;48.098;14.422;2023-01-29T04:55:28;-0.80;99.90
1359;DHT22;673;48.098;14.422;2023-01-29T04:58:03;-0.80;99.90
1359;DHT22;673;48.098;14.422;2023-01-29T05:00:34;-0.80;99.90
1359;DHT22;673;48.098;14.422;2023-01-29T05:03:07;-0.80;99.90
1359;DHT22;673;48.098;14.422;2023-01-29T05:05:38;-0.60;99.90
1359;DHT22;673;48.098;14.422;2023-01-29T05:08:07;-0.70;99.90
1359;DHT22;673;48.098;14.422;2023-01-29T05:10:35;-0.70;99.90
1359;DHT22;673;48.098;14.422;2023-01-29T05:13:05;-0.80;99.90
1359;DHT22;673;48.098;14.422;2023-01-29T05:15:37;-0.80;99.90
1359;DHT22;673;48.098;14.422;2023-01-29T05:18:05;-0.80;99.90
1359;DHT22;673;48.098;14.422;2023-01-29T05:20:35;-0.70;99.90
1359;DHT22;673;48.098;14.422;2023-01-29T05:23:14;-0.70;99.90
1359;DHT22;673;48.098;14.422;2023-01-29T05:25:41;-0.60;99.90
1359;DHT22;673;48.098;14.422;2023-01-29T05:28:08;-0.60;99.90
1359;DHT22;673;48.098;14.422;2023-01-29T05:30:41;-0.60;99.90
1359;DHT22;673;48.098;14.422;2023-01-29T05:33:12;-0.60;99.90
1359;DHT22;673;48.098;14.422;2023-01-29T05:35:39;-0.50;99.90
1359;DHT22;673;48.098;14.422;2023-01-29T05:38:08;-0.50;99.90
1359;DHT22;673;48.098;14.422;2023-01-29T05:40:36;-0.60;99.90
1359;DHT22;673;48.098;14.422;2023-01-29T05:43:03;-0.50;99.90
1359;DHT22;673;48.098;14.422;2023-01-29T05:45:31;-0.60;99.90
1359;DHT22;673;48.098;14.422;2023-01-29T05:47:59;-0.60;99.90
1359;DHT22;673;48.098;14.422;2023-01-29T05:50:26;-0.60;99.90
1359;DHT22;673;48.098;14.422;2023-01-29T05:52:57;-0.60;99.90
1359;DHT22;673;48.098;14.422;2023-01-29T05:55:25;-0.60;99.90
1359;DHT22;673;48.098;14.422;2023-01-29T05:57:54;-0.50;99.90
1359;DHT22;673;48.098;14.422;2023-01-29T06:00:21;-0.60;99.90
1359;DHT22;673;48.098;14.422;2023-01-29T06:02:50;-0.50;99.90
1359;DHT22;673;48.098;14.422;2023-01-29T06:05:17;-0.60;99.90
1359;DHT22;673;48.098;14.422;2023-01-29T06:07:45;-0.60;99.90
1359;DHT22;673;48.098;14.422;2023-01-29T06:10:15;-0.60;99.90
1359;DHT22;673;48.098;14.422;2023-01-29T06:12:44;-0.50;99.90
1359;DHT22;673;48.098;14.422;2023-01-29T06:15:11;-0.50;99.90
1359;DHT22;673;48.098;14.422;2023-01-29T06:17:40;-0.40;99.90
1359;DHT22;673;48.098;14.422;2023-01-29T06:20:09;-0.50;99.90
1359;DHT22;673;48.098;14.422;2023-01-29T06:22:36;-0.50;99.90
1359;DHT22;673;48.098;14.422;2023-01-29T06:25:04;-0.50;99.90
1359;DHT22;673;48.098;14.422;2023-01-29T06:27:31;-0.50;99.90
1359;DHT22;673;48.098;14.422;2023-01-29T06:30:02;-0.50;99.90
1359;DHT22;673;48.098;14.422;2023-01-29T06:32:31;-0.50;99.90
1359;DHT22;673;48.098;14.422;2023-01-29T06:34:58;-0.50;99.90
1359;DHT22;673;48.098;14.422;2023-01-29T06:37:25;-0.50;99.90
1359;DHT22;673;48.098;14.422;2023-01-29T06:39:52;-0.50;99.90
1359;DHT22;673;48.098;14.422;2023-01-29T06:42:19;-0.50;99.90
1359;DHT22;673;48.098;14.422;2023-01-29T06:44:52;-0.50;99.90
1359;DHT22;673;48.098;14.422;2023-01-29T06:47:20;-0.50;99.90
1359;DHT22;673;48.098;14.422;2023-01-29T06:49:47;-0.50;99.90
1359;DHT22;673;48.098;14.422;2023-01-29T06:52:14;-0.50;99.90
1359;DHT22;673;48.098;14.422;2023-01-29T06:54:41;-0.50;99.90
1359;DHT22;673;48.098;14.422;2023-01-29T06:57:08;-0.50;99.90
1359;DHT22;673;48.098;14.422;2023-01-29T06:59:35;-0.50;99.90
1359;DHT22;673;48.098;14.422;2023-01-29T07:02:02;-0.50;99.90
1359;DHT22;673;48.098;14.422;2023-01-29T07:04:31;-0.50;99.90
1359;DHT22;673;48.098;14.422;2023-01-29T07:06:58;-0.60;99.90
1359;DHT22;673;48.098;14.422;2023-01-29T07:09:25;-0.60;99.90
1359;DHT22;673;48.098;14.422;2023-01-29T07:11:55;-0.50;99.90
1359;DHT22;673;48.098;14.422;2023-01-29T07:14:22;-0.60;99.90
1359;DHT22;673;48.098;14.422;2023-01-29T07:16:49;-0.60;99.90
1359;DHT22;673;48.098;14.422;2023-01-29T07:19:16;-0.60;99.90
1359;DHT22;673;48.098;14.422;2023-01-29T07:21:44;-0.60;99.90
1359;DHT22;673;48.098;14.422;2023-01-29T07:24:11;-0.60;99.90
1359;DHT22;673;48.098;14.422;2023-01-29T07:26:38;-0.60;99.90
1359;DHT22;673;48.098;14.422;2023-01-29T07:29:05;-0.60;99.90
1359;DHT22;673;48.098;14.422;2023-01-29T07:31:32;-0.60;99.90
1359;DHT22;673;48.098;14.422;2023-01-29T07:33:59;-0.60;99.90
1359;DHT22;673;48.098;14.422;2023-01-29T07:36:26;-0.50;99.90
1359;DHT22;673;48.098;14.422;2023-01-29T07:39:03;-0.50;99.90
1359;DHT22;673;48.098;14.422;2023-01-29T07:41:30;-0.50;99.90
1359;DHT22;673;48.098;14.422;2023-01-29T07:43:59;-0.50;99.90
1359;DHT22;673;48.098;14.422;2023-01-29T07:46:26;-0.40;99.90
1359;DHT22;673;48.098;14.422;2023-01-29T07:49:01;-0.40;99.90
1359;DHT22;673;48.098;14.422;2023-01-29T07:51:27;-0.50;99.90
1359;DHT22;673;48.098;14.422;2023-01-29T07:53:54;-0.50;99.90
1359;DHT22;673;48.098;14.422;2023-01-29T07:56:25;-0.50;99.90
1359;DHT22;673;48.098;14.422;2023-01-29T07:58:52;-0.50;99.90
1359;DHT22;673;48.098;14.422;2023-01-29T08:01:21;-0.50;99.90
1359;DHT22;673;48.098;14.422;2023-01-29T08:03:50;-0.50;99.90
1359;DHT22;673;48.098;14.422;2023-01-29T08:06:17;-0.50;99.90
1359;DHT22;673;48.098;14.422;2023-01-29T08:08:47;-0.40;99.90
1359;DHT22;673;48.098;14.422;2023-01-29T08:11:14;-0.50;99.90
1359;DHT22;673;48.098;14.422;2023-01-29T08:13:42;-0.40;99.90
1359;DHT22;673;48.098;14.422;2023-01-29T08:16:10;-0.40;99.90
1359;DHT22;673;48.098;14.422;2023-01-29T08:18:41;-0.40;99.90
1359;DHT22;673;48.098;14.422;2023-01-29T08:21:13;-0.40;99.90
1359;DHT22;673;48.098;14.422;2023-01-29T08:23:50;-0.40;99.90
1359;DHT22;673;48.098;14.422;2023-01-29T08:26:17;-0.30;99.90
1359;DHT22;673;48.098;14.422;2023-01-29T08:28:45;-0.40;99.90
1359;DHT22;673;48.098;14.422;2023-01-29T08:31:13;-0.40;99.90
1359;DHT22;673;48.098;14.422;2023-01-29T08:33:40;-0.40;99.90
1359;DHT22;673;48.098;14.422;2023-01-29T08:36:09;-0.40;99.90
1359;DHT22;673;48.098;14.422;2023-01-29T08:38:36;-0.30;99.90
1359;DHT22;673;48.098;14.422;2023-01-29T08:41:04;-0.30;99.90
1359;DHT22;673;48.098;14.422;2023-01-29T08:43:35;-0.40;99.90
1359;DHT22;673;48.098;14.422;2023-01-29T08:46:04;-0.40;99.90
1359;DHT22;673;48.098;14.422;2023-01-29T08:48:33;-0.40;99.90
1359;DHT22;673;48.098;14.422;2023-01-29T08:51:00;-0.40;99.90
1359;DHT22;673;48.098;14.422;2023-01-29T08:53:29;-0.50;99.90
1359;DHT22;673;48.098;14.422;2023-01-29T08:55:58;-0.40;99.90
1359;DHT22;673;48.098;14.422;2023-01-29T08:58:25;-0.40;99.90
1359;DHT22;673;48.098;14.422;2023-01-29T09:00:51;-0.40;99.90
1359;DHT22;673;48.098;14.422;2023-01-29T09:03:20;-0.40;99.90
1359;DHT22;673;48.098;14.422;2023-01-29T09:05:48;-0.30;99.90
1359;DHT22;673;48.098;14.422;2023-01-29T09:08:15;-0.30;99.90
1359;DHT22;673;48.098;14.422;2023-01-29T09:10:42;-0.20;99.90
1359;DHT22;673;48.098;14.422;2023-01-29T09:13:09;-0.30;99.90
1359;DHT22;673;48.098;14.422;2023-01-29T09:15:38;-0.40;99.90
1359;DHT22;673;48.098;14.422;2023-01-29T09:18:05;-0.40;99.90
1359;DHT22;673;48.098;14.422;2023-01-29T09:20:33;-0.50;99.90
1359;DHT22;673;48.098;14.422;2023-01-29T09:23:05;-0.50;99.90
1359;DHT22;673;48.098;14.422;2023-01-29T09:25:32;-0.50;99.90
1359;DHT22;673;48.098;14.422;2023-01-29T09:27:59;-0.40;99.90
1359;DHT22;673;48.098;14.422;2023-01-29T09:30:26;-0.30;99.90
1359;DHT22;673;48.098;14.422;2023-01-29T09:32:53;-0.30;99.90
1359;DHT22;673;48.098;14.422;2023-01-29T09:35:22;-0.20;99.90
1359;DHT22;673;48.098;14.422;2023-01-29T09:37:55;-0.10;99.90
1359;DHT22;673;48.098;14.422;2023-01-29T09:40:29;-0.20;99.90
1359;DHT22;673;48.098;14.422;2023-01-29T09:43:01;-0.20;99.90
1359;DHT22;673;48.098;14.422;2023-01-29T09:45:29;-0.30;99.90
1359;DHT22;673;48.098;14.422;2023-01-29T09:47:58;-0.20;99.90
1359;DHT22;673;48.098;14.422;2023-01-29T09:50:37;-0.20;99.90
1359;DHT22;673;48.098;14.422;2023-01-29T09:53:15;-0.30;99.90
1359;DHT22;673;48.098;14.422;2023-01-29T09:55:47;-0.10;99.90
1359;DHT22;673;48.098;14.422;2023-01-29T09:58:23;-0.10;99.90
1359;DHT22;673;48.098;14.422;2023-01-29T10:01:02;-0.10;99.90
1359;DHT22;673;48.098;14.422;2023-01-29T10:03:49;-0.20;99.90
1359;DHT22;673;48.098;14.422;2023-01-29T10:06:42;0.00;99.90
1359;DHT22;673;48.098;14.422;2023-01-29T10:09:48;0.00;99.90
1359;DHT22;673;48.098;14.422;2023-01-29T10:12:32;0.00;99.90
1359;DHT22;673;48.098;14.422;2023-01-29T10:15:14;0.00;99.90
1359;DHT22;673;48.098;14.422;2023-01-29T10:17:58;0.10;99.90
1359;DHT22;673;48.098;14.422;2023-01-29T10:20:45;0.10;99.90
1359;DHT22;673;48.098;14.422;2023-01-29T10:23:22;0.00;99.90
1359;DHT22;673;48.098;14.422;2023-01-29T10:25:52;0.10;99.90
1359;DHT22;673;48.098;14.422;2023-01-29T10:28:27;0.00;99.90
1359;DHT22;673;48.098;14.422;2023-01-29T10:31:00;0.00;99.90
1359;DHT22;673;48.098;14.422;2023-01-29T10:33:34;0.00;99.90
1359;DHT22;673;48.098;14.422;2023-01-29T10:36:08;0.00;99.90
1359;DHT22;673;48.098;14.422;2023-01-29T10:38:42;0.00;99.90
1359;DHT22;673;48.098;14.422;2023-01-29T10:41:25;0.00;99.90
1359;DHT22;673;48.098;14.422;2023-01-29T10:44:04;0.00;99.90
1359;DHT22;673;48.098;14.422;2023-01-29T10:46:49;0.00;99.90
1359;DHT22;673;48.098;14.422;2023-01-29T10:49:34;0.10;99.90
1359;DHT22;673;48.098;14.422;2023-01-29T10:52:14;0.10;99.90
1359;DHT22;673;48.098;14.422;2023-01-29T10:54:56;0.10;99.90
1359;DHT22;673;48.098;14.422;2023-01-29T10:57:39;0.20;99.90
1359;DHT22;673;48.098;14.422;2023-01-29T11:00:11;0.30;99.90
1359;DHT22;673;48.098;14.422;2023-01-29T11:02:43;0.30;99.90
1359;DHT22;673;48.098;14.422;2023-01-29T11:05:19;0.30;99.90
1359;DHT22;673;48.098;14.422;2023-01-29T11:07:54;0.20;99.90
1359;DHT22;673;48.098;14.422;2023-01-29T11:10:26;0.20;99.90
1359;DHT22;673;48.098;14.422;2023-01-29T11:12:57;0.20;99.90
1359;DHT22;673;48.098;14.422;2023-01-29T11:15:30;0.20;99.90
1359;DHT22;673;48.098;14.422;2023-01-29T11:18:04;0.30;99.90
1359;DHT22;673;48.098;14.422;2023-01-29T11:20:40;0.30;99.90
1359;DHT22;673;48.098;14.422;2023-01-29T11:23:24;0.40;99.90
1359;DHT22;673;48.098;14.422;2023-01-29T11:25:53;0.40;99.90
1359;DHT22;673;48.098;14.422;2023-01-29T11:28:37;0.60;99.90
1359;DHT22;673;48.098;14.422;2023-01-29T11:31:15;0.70;99.90
1359;DHT22;673;48.098;14.422;2023-01-29T11:33:44;0.80;99.90
1359;DHT22;673;48.098;14.422;2023-01-29T11:36:29;0.80;99.90
1359;DHT22;673;48.098;14.422;2023-01-29T11:39:12;0.90;99.90
1359;DHT22;673;48.098;14.422;2023-01-29T11:41:46;0.90;99.90
1359;DHT22;673;48.098;14.422;2023-01-29T11:47:15;0.90;99.90
1359;DHT22;673;48.098;14.422;2023-01-29T11:49:46;1.00;99.90
1359;DHT22;673;48.098;14.422;2023-01-29T11:52:16;1.10;99.90
1359;DHT22;673;48.098;14.422;2023-01-29T11:54:46;1.10;99.90
1359;DHT22;673;48.098;14.422;2023-01-29T11:57:24;1.00;99.90
1359;DHT22;673;48.098;14.422;2023-01-29T11:59:58;1.10;99.90
1359;DHT22;673;48.098;14.422;2023-01-29T12:02:33;1.20;99.90
1359;DHT22;673;48.098;14.422;2023-01-29T12:05:04;1.10;99.90
1359;DHT22;673;48.098;14.422;2023-01-29T12:07:33;1.10;99.90
1359;DHT22;673;48.098;14.422;2023-01-29T12:10:00;1.00;99.90
1359;DHT22;673;48.098;14.422;2023-01-29T12:12:36;1.20;99.90
1359;DHT22;673;48.098;14.422;2023-01-29T12:15:17;1.20;99.90
1359;DHT22;673;48.098;14.422;2023-01-29T12:17:56;1.10;99.90
1359;DHT22;673;48.098;14.422;2023-01-29T12:20:32;1.20;99.90
1359;DHT22;673;48.098;14.422;2023-01-29T12:23:23;1.30;99.90
1359;DHT22;673;48.098;14.422;2023-01-29T12:25:59;1.20;99.90
1359;DHT22;673;48.098;14.422;2023-01-29T12:28:41;1.10;99.90
1359;DHT22;673;48.098;14.422;2023-01-29T12:31:28;1.10;99.90
1359;DHT22;673;48.098;14.422;2023-01-29T12:34:05;1.10;99.90
1359;DHT22;673;48.098;14.422;2023-01-29T12:36:37;1.10;99.90
1359;DHT22;673;48.098;14.422;2023-01-29T12:39:08;1.10;99.90
1359;DHT22;673;48.098;14.422;2023-01-29T12:41:40;1.10;99.90
1359;DHT22;673;48.098;14.422;2023-01-29T12:44:14;1.10;99.90
1359;DHT22;673;48.098;14.422;2023-01-29T12:46:48;1.20;99.90
1359;DHT22;673;48.098;14.422;2023-01-29T12:49:21;1.20;99.90
1359;DHT22;673;48.098;14.422;2023-01-29T12:51:54;1.30;99.90
1359;DHT22;673;48.098;14.422;2023-01-29T12:54:26;1.40;99.90
1359;DHT22;673;48.098;14.422;2023-01-29T12:56:59;1.40;99.90
1359;DHT22;673;48.098;14.422;2023-01-29T12:59:34;1.30;99.90
1359;DHT22;673;48.098;14.422;2023-01-29T13:02:17;1.30;99.90
1359;DHT22;673;48.098;14.422;2023-01-29T13:04:49;1.50;99.90
1359;DHT22;673;48.098;14.422;2023-01-29T13:07:29;1.40;99.90
1359;DHT22;673;48.098;14.422;2023-01-29T13:10:03;1.40;99.90
1359;DHT22;673;48.098;14.422;2023-01-29T13:12:33;1.40;99.90
1359;DHT22;673;48.098;14.422;2023-01-29T13:15:05;1.50;99.90
1359;DHT22;673;48.098;14.422;2023-01-29T13:17:42;1.40;99.90
1359;DHT22;673;48.098;14.422;2023-01-29T13:20:18;1.40;99.90
1359;DHT22;673;48.098;14.422;2023-01-29T13:22:49;1.30;99.90
1359;DHT22;673;48.098;14.422;2023-01-29T13:25:21;1.30;99.90
1359;DHT22;673;48.098;14.422;2023-01-29T13:27:50;1.20;99.90
1359;DHT22;673;48.098;14.422;2023-01-29T13:30:28;1.30;99.90
1359;DHT22;673;48.098;14.422;2023-01-29T13:33:02;1.20;99.90
1359;DHT22;673;48.098;14.422;2023-01-29T13:35:40;1.20;99.90
1359;DHT22;673;48.098;14.422;2023-01-29T13:38:22;1.30;99.90
1359;DHT22;673;48.098;14.422;2023-01-29T13:40:59;1.30;99.90
1359;DHT22;673;48.098;14.422;2023-01-29T13:43:29;1.30;99.90
1359;DHT22;673;48.098;14.422;2023-01-29T13:46:07;1.20;99.90
1359;DHT22;673;48.098;14.422;2023-01-29T13:48:40;1.10;99.90
1359;DHT22;673;48.098;14.422;2023-01-29T13:51:11;1.00;99.90
1359;DHT22;673;48.098;14.422;2023-01-29T13:53:42;1.00;99.90
1359;DHT22;673;48.098;14.422;2023-01-29T13:56:41;1.10;99.90
1359;DHT22;673;48.098;14.422;2023-01-29T13:59:21;0.90;99.90
1359;DHT22;673;48.098;14.422;2023-01-29T14:02:03;0.80;99.90
1359;DHT22;673;48.098;14.422;2023-01-29T14:04:46;0.70;99.90
1359;DHT22;673;48.098;14.422;2023-01-29T14:07:48;0.70;99.90
1359;DHT22;673;48.098;14.422;2023-01-29T14:10:19;0.80;99.90
1359;DHT22;673;48.098;14.422;2023-01-29T14:12:50;0.70;99.90
1359;DHT22;673;48.098;14.422;2023-01-29T14:15:38;0.70;99.90
1359;DHT22;673;48.098;14.422;2023-01-29T14:18:16;0.80;99.90
1359;DHT22;673;48.098;14.422;2023-01-29T14:20:54;0.90;99.90
1359;DHT22;673;48.098;14.422;2023-01-29T14:23:28;0.90;99.90
1359;DHT22;673;48.098;14.422;2023-01-29T14:25:58;0.90;99.90
1359;DHT22;673;48.098;14.422;2023-01-29T14:28:28;0.80;99.90
1359;DHT22;673;48.098;14.422;2023-01-29T14:30:56;0.90;99.90
1359;DHT22;673;48.098;14.422;2023-01-29T14:33:30;0.80;99.90
1359;DHT22;673;48.098;14.422;2023-01-29T14:36:04;0.80;99.90
1359;DHT22;673;48.098;14.422;2023-01-29T14:38:33;0.80;99.90
1359;DHT22;673;48.098;14.422;2023-01-29T14:41:05;0.80;99.90
1359;DHT22;673;48.098;14.422;2023-01-29T14:43:36;0.70;99.90
1359;DHT22;673;48.098;14.422;2023-01-29T14:49:49;0.70;99.90
1359;DHT22;673;48.098;14.422;2023-01-29T14:52:18;0.70;99.90
1359;DHT22;673;48.098;14.422;2023-01-29T14:54:49;0.70;99.90
1359;DHT22;673;48.098;14.422;2023-01-29T14:57:21;0.60;99.90
1359;DHT22;673;48.098;14.422;2023-01-29T14:59:53;0.60;99.90
1359;DHT22;673;48.098;14.422;2023-01-29T15:02:25;0.50;99.90
1359;DHT22;673;48.098;14.422;2023-01-29T15:04:59;0.50;99.90
1359;DHT22;673;48.098;14.422;2023-01-29T15:07:34;0.50;99.90
1359;DHT22;673;48.098;14.422;2023-01-29T15:10:13;0.40;99.90
1359;DHT22;673;48.098;14.422;2023-01-29T15:12:45;0.40;99.90
1359;DHT22;673;48.098;14.422;2023-01-29T15:15:20;0.40;99.90
1359;DHT22;673;48.098;14.422;2023-01-29T15:17:55;0.40;99.90
1359;DHT22;673;48.098;14.422;2023-01-29T15:20:30;0.40;99.90
1359;DHT22;673;48.098;14.422;2023-01-29T15:22:59;0.30;99.90
1359;DHT22;673;48.098;14.422;2023-01-29T15:25:33;0.40;99.90
1359;DHT22;673;48.098;14.422;2023-01-29T15:28:02;0.30;99.90
1359;DHT22;673;48.098;14.422;2023-01-29T15:30:34;0.30;99.90
1359;DHT22;673;48.098;14.422;2023-01-29T15:33:01;0.30;99.90
1359;DHT22;673;48.098;14.422;2023-01-29T15:35:32;0.30;99.90
1359;DHT22;673;48.098;14.422;2023-01-29T15:38:06;0.30;99.90
1359;DHT22;673;48.098;14.422;2023-01-29T15:40:37;0.20;99.90
1359;DHT22;673;48.098;14.422;2023-01-29T15:43:20;0.10;99.90
1359;DHT22;673;48.098;14.422;2023-01-29T15:45:48;0.10;99.90
1359;DHT22;673;48.098;14.422;2023-01-29T15:48:18;0.20;99.90
1359;DHT22;673;48.098;14.422;2023-01-29T15:50:53;0.20;99.90
1359;DHT22;673;48.098;14.422;2023-01-29T15:53:31;0.20;99.90
1359;DHT22;673;48.098;14.422;2023-01-29T15:56:07;0.10;99.90
1359;DHT22;673;48.098;14.422;2023-01-29T15:58:34;0.10;99.90
1359;DHT22;673;48.098;14.422;2023-01-29T16:01:02;0.10;99.90
1359;DHT22;673;48.098;14.422;2023-01-29T16:03:33;0.10;99.90
1359;DHT22;673;48.098;14.422;2023-01-29T16:06:05;0.20;99.90
1359;DHT22;673;48.098;14.422;2023-01-29T16:08:37;0.20;99.90
1359;DHT22;673;48.098;14.422;2023-01-29T16:11:06;0.10;99.90
1359;DHT22;673;48.098;14.422;2023-01-29T16:13:39;0.10;99.90
1359;DHT22;673;48.098;14.422;2023-01-29T16:16:19;0.10;99.90
1359;DHT22;673;48.098;14.422;2023-01-29T16:18:52;0.00;99.90
1359;DHT22;673;48.098;14.422;2023-01-29T16:21:24;0.00;99.90
1359;DHT22;673;48.098;14.422;2023-01-29T16:23:57;0.10;99.90
1359;DHT22;673;48.098;14.422;2023-01-29T16:26:26;0.10;99.90
1359;DHT22;673;48.098;14.422;2023-01-29T16:28:56;0.10;99.90
1359;DHT22;673;48.098;14.422;2023-01-29T16:31:30;0.00;99.90
1359;DHT22;673;48.098;14.422;2023-01-29T16:33:58;0.10;99.90
1359;DHT22;673;48.098;14.422;2023-01-29T16:36:32;0.10;99.90
1359;DHT22;673;48.098;14.422;2023-01-29T16:39:11;0.00;99.90
1359;DHT22;673;48.098;14.422;2023-01-29T16:41:41;0.10;99.90
1359;DHT22;673;48.098;14.422;2023-01-29T16:44:30;0.10;99.90
1359;DHT22;673;48.098;14.422;2023-01-29T16:47:06;0.00;99.90
1359;DHT22;673;48.098;14.422;2023-01-29T16:49:47;0.00;99.90
1359;DHT22;673;48.098;14.422;2023-01-29T16:52:17;0.10;99.90